createdAt,value
2023-03-21T00:01:54.641Z,76649.66
2023-03-21T00:04:23.703Z,76659.78
2023-03-21T00:06:51.330Z,76653.72
2023-03-21T00:09:18.664Z,76653.72
2023-03-21T00:11:45.771Z,76649.66
2023-03-21T00:14:20.220Z,76645.59
2023-03-21T00:16:51.765Z,76637.50
2023-03-21T00:19:24.970Z,76645.59
2023-03-21T00:22:06.458Z,76645.59
2023-03-21T00:24:36.062Z,76649.66
2023-03-21T00:27:26.917Z,76639.53
2023-03-21T00:29:50.913Z,76645.59
2023-03-21T00:32:21.902Z,76643.56
2023-03-21T00:35:38.266Z,76647.63
2023-03-21T00:37:37.196Z,76649.66
2023-03-21T00:40:16.417Z,76649.66
2023-03-21T00:42:50.654Z,76641.53
2023-03-21T00:45:19.416Z,76649.66
2023-03-21T00:47:46.540Z,76645.59
2023-03-21T00:50:13.881Z,76653.72
2023-03-21T00:52:41.405Z,76645.59
2023-03-21T00:55:14.686Z,76641.53
2023-03-21T00:57:45.357Z,76653.72
2023-03-21T01:00:15.349Z,76657.75
2023-03-21T01:03:14.244Z,76661.81
2023-03-21T01:06:04.574Z,76665.88
2023-03-21T01:08:52.140Z,76665.88
2023-03-21T01:11:24.002Z,76665.88
2023-03-21T01:13:56.281Z,76667.91
2023-03-21T01:16:29.314Z,76671.94
2023-03-21T01:18:57.282Z,76669.94
2023-03-21T01:21:24.604Z,76673.97
2023-03-21T01:23:51.769Z,76669.94
2023-03-21T01:26:19.621Z,76673.97
2023-03-21T01:28:46.770Z,76676.00
2023-03-21T01:31:15.842Z,76673.97
2023-03-21T01:33:43.813Z,76676.00
2023-03-21T01:36:31.421Z,76682.09
2023-03-21T01:39:04.421Z,76688.16
2023-03-21T01:41:45.150Z,76682.09
2023-03-21T01:44:23.777Z,76678.03
2023-03-21T01:47:09.372Z,76678.03
2023-03-21T01:49:51.031Z,76682.09
2023-03-21T01:52:39.188Z,76686.13
2023-03-21T01:55:34.053Z,76684.13
2023-03-21T01:58:12.818Z,76673.97
2023-03-21T02:01:04.877Z,76678.03
2023-03-21T02:03:52.084Z,76678.03
2023-03-21T02:06:53.448Z,76684.13
2023-03-21T02:09:35.253Z,76684.13
2023-03-21T02:12:04.229Z,76682.09
2023-03-21T02:14:36.183Z,76690.19
2023-03-21T02:17:27.352Z,76686.13
2023-03-21T02:20:51.139Z,76686.13
2023-03-21T02:23:36.957Z,76706.41
2023-03-21T02:26:40.893Z,76702.34
2023-03-21T02:29:35.965Z,76704.38
2023-03-21T02:32:22.637Z,76710.47
2023-03-21T02:35:14.171Z,76706.41
2023-03-21T02:38:00.834Z,76698.31
2023-03-21T02:40:40.120Z,76698.31
2023-03-21T02:43:23.770Z,76694.25
2023-03-21T02:46:07.378Z,76694.25
2023-03-21T02:48:50.362Z,76694.25
2023-03-21T02:51:22.436Z,76692.22
2023-03-21T02:54:16.689Z,76692.22
2023-03-21T02:56:43.153Z,76690.19
2023-03-21T02:59:11.428Z,76694.25
2023-03-21T03:01:38.467Z,76690.19
2023-03-21T03:04:22.132Z,76694.25
2023-03-21T03:07:13.032Z,76690.19
2023-03-21T03:10:11.224Z,76698.31
2023-03-21T03:13:18.801Z,76702.34
2023-03-21T03:15:52.586Z,76702.34
2023-03-21T03:18:52.510Z,76698.31
2023-03-21T03:21:21.306Z,76704.38
2023-03-21T03:24:03.249Z,76700.34
2023-03-21T03:26:41.372Z,76702.34
2023-03-21T03:29:12.823Z,76706.41
2023-03-21T03:31:49.178Z,76708.44
2023-03-21T03:34:21.686Z,76702.34
2023-03-21T03:36:56.413Z,76706.41
2023-03-21T03:39:37.862Z,76706.41
2023-03-21T03:42:28.153Z,76714.53
2023-03-21T03:45:06.648Z,76706.41
2023-03-21T03:47:57.044Z,76722.63
2023-03-21T03:50:42.304Z,76710.47
2023-03-21T03:53:18.975Z,76722.63
2023-03-21T03:55:50.343Z,76730.75
2023-03-21T03:58:33.429Z,76722.63
2023-03-21T04:01:07.625Z,76730.75
2023-03-21T04:03:48.403Z,76726.69
2023-03-21T04:06:18.626Z,76726.69
2023-03-21T04:08:46.753Z,76728.72
2023-03-21T04:11:17.932Z,76726.69
2023-03-21T04:13:49.243Z,76726.69
2023-03-21T04:16:23.498Z,76726.69
2023-03-21T04:18:52.546Z,76718.56
2023-03-21T04:21:20.118Z,76708.44
2023-03-21T04:23:47.329Z,76718.56
2023-03-21T04:26:14.331Z,76722.63
2023-03-21T04:28:56.649Z,76730.75
2023-03-21T04:31:27.313Z,76730.75
2023-03-21T04:34:24.040Z,76738.84
2023-03-21T04:36:54.117Z,76734.78
2023-03-21T04:39:22.179Z,76742.91
2023-03-21T04:41:50.282Z,76746.97
2023-03-21T04:44:18.275Z,76738.84
2023-03-21T04:46:46.513Z,76730.75
2023-03-21T04:49:14.150Z,76738.84
2023-03-21T04:51:45.221Z,76742.91
2023-03-21T04:56:42.891Z,76738.84
2023-03-21T04:59:12.948Z,76734.78
2023-03-21T05:01:41.322Z,76742.91
2023-03-21T05:04:11.731Z,76736.81
2023-03-21T05:06:39.533Z,76742.91
2023-03-21T05:09:07.159Z,76738.84
2023-03-21T05:11:37.960Z,76738.84
2023-03-21T05:14:07.594Z,76730.75
2023-03-21T05:16:36.430Z,76736.81
2023-03-21T05:19:03.925Z,76734.78
2023-03-21T05:21:42.017Z,76730.75
2023-03-21T05:24:20.023Z,76738.84
2023-03-21T05:26:52.415Z,76738.84
2023-03-21T05:29:23.022Z,76740.88
2023-03-21T05:32:00.359Z,76738.84
2023-03-21T05:34:28.023Z,76738.84
2023-03-21T05:36:55.354Z,76732.75
2023-03-21T05:39:24.836Z,76730.75
2023-03-21T05:42:00.936Z,76730.75
2023-03-21T05:44:28.698Z,76742.91
2023-03-21T05:46:55.880Z,76746.97
2023-03-21T05:49:29.230Z,76746.97
2023-03-21T05:51:59.289Z,76746.97
2023-03-21T05:54:26.602Z,76763.16
2023-03-21T05:56:54.115Z,76767.22
2023-03-21T05:59:32.984Z,76771.28
2023-03-21T06:02:00.193Z,76771.28
2023-03-21T06:04:27.889Z,76767.22
2023-03-21T06:06:54.980Z,76775.34
2023-03-21T06:09:24.312Z,76775.34
2023-03-21T06:11:57.281Z,76783.44
2023-03-21T06:14:33.727Z,76781.41
2023-03-21T06:17:15.930Z,76787.50
2023-03-21T06:19:56.167Z,76791.56
2023-03-21T06:22:32.537Z,76787.50
2023-03-21T06:25:01.626Z,76791.56
2023-03-21T06:27:29.123Z,76787.50
2023-03-21T06:30:05.808Z,76783.44
2023-03-21T06:32:38.617Z,76779.38
2023-03-21T06:35:13.204Z,76775.34
2023-03-21T06:37:40.160Z,76763.16
2023-03-21T06:40:09.646Z,76755.06
2023-03-21T06:42:36.732Z,76746.97
2023-03-21T06:45:10.579Z,76742.91
2023-03-21T06:47:37.724Z,76732.75
2023-03-21T06:50:10.897Z,76730.75
2023-03-21T06:52:42.185Z,76730.75
2023-03-21T06:55:10.429Z,76734.78
2023-03-21T06:57:37.763Z,76738.84
2023-03-21T07:00:06.096Z,76734.78
2023-03-21T07:02:33.904Z,76728.72
2023-03-21T07:05:07.410Z,76726.69
2023-03-21T07:07:34.415Z,76738.84
2023-03-21T07:10:01.775Z,76736.81
2023-03-21T07:12:36.441Z,76746.97
2023-03-21T07:15:15.275Z,76746.97
2023-03-21T07:17:44.419Z,76736.81
2023-03-21T07:20:12.779Z,76730.75
2023-03-21T07:22:40.595Z,76738.84
2023-03-21T07:25:08.549Z,76738.84
2023-03-21T07:27:41.072Z,76734.78
2023-03-21T07:30:10.805Z,76706.41
2023-03-21T07:32:38.242Z,76702.34
2023-03-21T07:35:12.389Z,76690.19
2023-03-21T07:37:40.815Z,76682.09
2023-03-21T07:40:10.545Z,76661.81
2023-03-21T07:42:40.294Z,76661.81
2023-03-21T07:45:09.404Z,76682.09
2023-03-21T07:47:36.722Z,76706.41
2023-03-21T07:50:07.539Z,76712.50
2023-03-21T07:52:34.596Z,76698.31
2023-03-21T07:55:01.807Z,76694.25
2023-03-21T07:57:29.091Z,76694.25
2023-03-21T07:59:56.238Z,76678.03
2023-03-21T08:02:23.157Z,76673.97
2023-03-21T08:04:51.263Z,76694.25
2023-03-21T08:07:18.268Z,76698.31
2023-03-21T08:09:45.584Z,76702.34
2023-03-21T08:12:12.496Z,76694.25
2023-03-21T08:14:39.745Z,76698.31
2023-03-21T08:17:09.467Z,76690.19
2023-03-21T08:19:37.601Z,76684.13
2023-03-21T08:22:06.716Z,76669.94
2023-03-21T08:24:34.278Z,76661.81
2023-03-21T08:27:01.996Z,76655.72
2023-03-21T08:29:29.216Z,76649.66
2023-03-21T08:31:56.331Z,76639.53
2023-03-21T08:34:23.926Z,76639.53
2023-03-21T08:36:50.914Z,76617.22
2023-03-21T08:39:18.087Z,76596.94
2023-03-21T08:41:45.382Z,76592.91
2023-03-21T08:44:13.072Z,76580.72
2023-03-21T08:46:40.167Z,76560.47
2023-03-21T08:49:07.495Z,76540.19
2023-03-21T08:51:34.614Z,76528.03
2023-03-21T08:54:01.815Z,76540.19
2023-03-21T08:56:29.119Z,76548.31
2023-03-21T08:58:56.633Z,76548.31
2023-03-21T09:01:23.658Z,76532.09
2023-03-21T09:03:50.896Z,76532.09
2023-03-21T09:06:17.792Z,76564.50
2023-03-21T09:08:46.436Z,76568.56
2023-03-21T09:11:13.891Z,76582.75
2023-03-21T09:13:41.195Z,76588.84
2023-03-21T09:16:08.997Z,76605.06
2023-03-21T09:18:47.508Z,76613.16
2023-03-21T09:21:16.889Z,76621.28
2023-03-21T09:23:48.740Z,76633.44
2023-03-21T09:26:16.237Z,76625.31
2023-03-21T09:28:43.662Z,76621.28
2023-03-21T09:31:16.619Z,76625.31
2023-03-21T09:33:44.797Z,76627.34
2023-03-21T09:36:14.171Z,76629.38
2023-03-21T09:38:43.170Z,76621.28
2023-03-21T09:41:27.894Z,76621.28
2023-03-21T09:44:01.109Z,76613.16
2023-03-21T09:46:35.204Z,76613.16
2023-03-21T09:49:09.926Z,76613.16
2023-03-21T09:51:43.049Z,76609.09
2023-03-21T09:54:21.469Z,76625.31
2023-03-21T09:56:52.902Z,76643.56
2023-03-21T09:59:35.810Z,76637.50
2023-03-21T10:02:04.098Z,76667.91
2023-03-21T10:04:32.495Z,76682.09
2023-03-21T10:07:02.650Z,76700.34
2023-03-21T10:09:32.639Z,76728.72
2023-03-21T10:12:09.293Z,76740.88
2023-03-21T10:14:40.893Z,76744.94
2023-03-21T10:17:33.826Z,76738.84
2023-03-21T10:20:12.081Z,76730.75
2023-03-21T10:22:39.817Z,76700.34
2023-03-21T10:25:08.650Z,76688.16
2023-03-21T10:27:37.070Z,76667.91
2023-03-21T10:30:07.597Z,76657.75
2023-03-21T10:32:35.884Z,76649.66
2023-03-21T10:35:07.422Z,76678.03
2023-03-21T10:37:36.377Z,76690.19
2023-03-21T10:40:06.298Z,76698.31
2023-03-21T10:42:36.006Z,76718.56
2023-03-21T10:45:03.246Z,76732.75
2023-03-21T10:47:33.597Z,76759.13
2023-03-21T10:50:20.453Z,76779.38
2023-03-21T10:52:53.610Z,76775.34
2023-03-21T10:55:29.551Z,76767.22
2023-03-21T10:58:11.011Z,76761.16
2023-03-21T11:00:41.518Z,76755.06
2023-03-21T11:03:21.728Z,76748.97
2023-03-21T11:05:53.290Z,76736.81
2023-03-21T11:08:20.789Z,76746.97
2023-03-21T11:10:59.851Z,76746.97
2023-03-21T11:13:48.534Z,76726.69
2023-03-21T11:16:24.328Z,76726.69
2023-03-21T11:18:53.103Z,76708.44
2023-03-21T11:21:22.234Z,76694.25
2023-03-21T11:23:52.100Z,76676.00
2023-03-21T11:26:29.856Z,76657.75
2023-03-21T11:28:57.605Z,76641.53
2023-03-21T11:31:45.473Z,76613.16
2023-03-21T11:34:26.457Z,76596.94
2023-03-21T11:36:59.346Z,76566.53
2023-03-21T11:39:33.921Z,76568.56
2023-03-21T11:42:01.144Z,76572.63
2023-03-21T11:44:31.838Z,76601.00
2023-03-21T11:46:59.264Z,76598.97
2023-03-21T11:49:28.010Z,76584.78
2023-03-21T11:52:03.012Z,76584.78
2023-03-21T11:55:04.082Z,76560.47
2023-03-21T11:57:46.880Z,76511.81
2023-03-21T12:01:09.266Z,76495.59
2023-03-21T12:03:49.206Z,76485.47
2023-03-21T12:06:37.874Z,76483.44
2023-03-21T12:09:17.702Z,76455.06
2023-03-21T12:12:38.323Z,76463.16
2023-03-21T12:15:27.797Z,76463.16
2023-03-21T12:18:39.498Z,76430.72
2023-03-21T12:21:17.045Z,76408.44
2023-03-21T12:24:13.884Z,76422.63
2023-03-21T12:26:50.311Z,76438.84
2023-03-21T12:29:36.682Z,76446.94
2023-03-21T12:32:06.715Z,76446.94
2023-03-21T12:34:52.608Z,76430.72
2023-03-21T12:37:36.066Z,76422.63
2023-03-21T12:40:20.617Z,76446.94
2023-03-21T12:43:12.444Z,76475.31
2023-03-21T12:45:47.256Z,76477.34
2023-03-21T12:48:53.564Z,76463.16
2023-03-21T12:51:26.517Z,76479.38
2023-03-21T12:53:56.915Z,76471.28
2023-03-21T12:56:47.868Z,76451.00
2023-03-21T12:59:29.925Z,76444.91
2023-03-21T13:02:01.955Z,76414.50
2023-03-21T13:04:44.296Z,76390.19
2023-03-21T13:07:17.599Z,76357.75
2023-03-21T13:09:45.017Z,76325.31
2023-03-21T13:12:30.621Z,76296.94
2023-03-21T13:15:00.796Z,76292.91
2023-03-21T13:17:37.268Z,76284.78
2023-03-21T13:20:26.949Z,76292.91
2023-03-21T13:22:53.873Z,76317.22
2023-03-21T13:25:33.329Z,76351.69
2023-03-21T13:28:04.239Z,76378.03
2023-03-21T13:30:32.531Z,76398.28
2023-03-21T13:33:08.451Z,76406.41
2023-03-21T13:35:43.090Z,76394.25
2023-03-21T13:38:18.639Z,76394.25
2023-03-21T13:40:48.685Z,76378.03
2023-03-21T13:43:39.077Z,76369.91
2023-03-21T13:46:11.303Z,76380.06
2023-03-21T13:48:59.167Z,76353.72
2023-03-21T13:52:12.263Z,76317.22
2023-03-21T13:54:39.272Z,76301.00
2023-03-21T13:57:07.478Z,76298.97
2023-03-21T13:59:43.657Z,76276.69
2023-03-21T14:02:28.058Z,76264.53
2023-03-21T14:05:08.178Z,76321.28
2023-03-21T14:07:44.583Z,76333.44
2023-03-21T14:10:28.872Z,76309.13
2023-03-21T14:12:57.172Z,76292.91
2023-03-21T14:15:27.742Z,76288.84
2023-03-21T14:17:57.665Z,76305.06
2023-03-21T14:20:40.154Z,76321.28
2023-03-21T14:23:13.630Z,76357.75
2023-03-21T14:25:47.572Z,76386.13
2023-03-21T14:28:28.579Z,76390.19
2023-03-21T14:31:00.338Z,76373.97
2023-03-21T14:33:51.869Z,76373.97
2023-03-21T14:36:23.815Z,76369.91
2023-03-21T14:39:07.675Z,76353.72
2023-03-21T14:41:45.279Z,76337.50
2023-03-21T14:44:17.480Z,76317.22
2023-03-21T14:46:45.142Z,76309.13
2023-03-21T14:49:27.440Z,76305.06
2023-03-21T14:51:57.043Z,76311.13
2023-03-21T14:54:27.362Z,76301.00
2023-03-21T14:57:03.789Z,76280.72
2023-03-21T14:59:39.230Z,76264.53
2023-03-21T15:02:20.130Z,76244.25
2023-03-21T15:04:51.562Z,76240.19
2023-03-21T15:07:31.125Z,76244.25
2023-03-21T15:10:04.729Z,76268.56
2023-03-21T15:12:32.837Z,76268.56
2023-03-21T15:15:01.513Z,76276.69
2023-03-21T15:17:28.960Z,76309.13
2023-03-21T15:19:56.233Z,76321.28
2023-03-21T15:22:49.117Z,76321.28
2023-03-21T15:25:22.301Z,76329.38
2023-03-21T15:27:50.905Z,76333.44
2023-03-21T15:30:30.407Z,76376.00
2023-03-21T15:32:58.869Z,76398.28
2023-03-21T15:35:31.987Z,76404.38
2023-03-21T15:37:59.876Z,76414.50
2023-03-21T15:40:30.289Z,76422.63
2023-03-21T15:43:13.469Z,76418.56
2023-03-21T15:45:55.978Z,76426.69
2023-03-21T15:48:28.428Z,76438.84
2023-03-21T15:50:55.617Z,76436.81
2023-03-21T15:53:24.073Z,76438.84
2023-03-21T15:55:57.039Z,76430.72
2023-03-21T15:58:27.383Z,76430.72
2023-03-21T16:00:57.547Z,76426.69
2023-03-21T16:03:28.365Z,76426.69
2023-03-21T16:06:10.613Z,76430.72
2023-03-21T16:08:44.740Z,76434.78
2023-03-21T16:11:40.420Z,76434.78
2023-03-21T16:14:08.271Z,76451.00
2023-03-21T16:16:36.388Z,76467.22
2023-03-21T16:19:04.264Z,76467.22
2023-03-21T16:21:31.838Z,76485.47
2023-03-21T16:23:58.882Z,76493.56
2023-03-21T16:26:32.375Z,76495.59
2023-03-21T16:28:59.850Z,76503.69
2023-03-21T16:31:30.191Z,76505.72
2023-03-21T16:33:57.548Z,76523.97
2023-03-21T16:36:28.701Z,76540.19
2023-03-21T16:38:56.289Z,76548.31
2023-03-21T16:41:25.580Z,76560.47
2023-03-21T16:43:53.630Z,76570.59
2023-03-21T16:46:23.706Z,76578.69
2023-03-21T16:48:53.056Z,76596.94
2023-03-21T16:51:29.374Z,76605.06
2023-03-21T16:53:57.946Z,76611.13
2023-03-21T16:56:46.847Z,76629.38
2023-03-21T16:59:14.320Z,76641.53
2023-03-21T17:01:46.310Z,76657.75
2023-03-21T17:04:15.024Z,76673.97
2023-03-21T17:06:51.730Z,76694.25
2023-03-21T17:09:21.842Z,76710.47
2023-03-21T17:11:49.736Z,76714.53
2023-03-21T17:14:21.245Z,76734.78
2023-03-21T17:16:49.295Z,76751.00
2023-03-21T17:19:19.283Z,76759.13
2023-03-21T17:21:46.658Z,76771.28
2023-03-21T17:24:13.617Z,76783.44
2023-03-21T17:26:41.099Z,76799.66
2023-03-21T17:29:10.865Z,76807.78
2023-03-21T17:31:38.225Z,76821.97
2023-03-21T17:34:05.647Z,76828.03
2023-03-21T17:36:36.283Z,76836.16
2023-03-21T17:39:06.550Z,76844.25
2023-03-21T17:41:33.764Z,76856.44
2023-03-21T17:44:01.211Z,76860.47
2023-03-21T17:46:32.131Z,76868.59
2023-03-21T17:48:59.082Z,76868.59
2023-03-21T17:51:30.213Z,76880.75
2023-03-21T17:53:57.488Z,76880.75
2023-03-21T17:56:32.091Z,76896.97
2023-03-21T17:59:04.168Z,76905.09
2023-03-21T18:01:32.090Z,76905.09
2023-03-21T18:04:02.713Z,76907.09
2023-03-21T18:06:30.148Z,76925.34
2023-03-21T18:08:57.574Z,76925.34
2023-03-21T18:11:26.848Z,76929.41
2023-03-21T18:14:06.571Z,76937.53
2023-03-21T18:16:41.564Z,76945.63
2023-03-21T18:19:10.669Z,76949.69
2023-03-21T18:21:40.741Z,76953.75
2023-03-21T18:24:07.855Z,76959.81
2023-03-21T18:26:35.374Z,76965.91
2023-03-21T18:32:04.744Z,76965.91
2023-03-21T18:34:32.796Z,76969.94
2023-03-21T18:37:03.717Z,76980.09
2023-03-21T18:39:33.116Z,76990.22
2023-03-21T18:42:02.462Z,77000.38
2023-03-21T18:44:31.157Z,76998.34
2023-03-21T18:46:58.936Z,77002.41
2023-03-21T18:52:13.403Z,77006.44
2023-03-21T18:54:40.619Z,77010.50
2023-03-21T18:59:56.814Z,77026.72
2023-03-21T19:02:24.328Z,77028.75
2023-03-21T19:04:51.785Z,77030.78
2023-03-21T19:07:19.148Z,77030.78
2023-03-21T19:10:10.721Z,77030.78
2023-03-21T19:12:34.175Z,77026.72
2023-03-21T19:15:01.407Z,77026.72
2023-03-21T19:20:16.729Z,77030.78
2023-03-21T19:22:44.795Z,77034.84
2023-03-21T19:25:13.419Z,77038.88
2023-03-21T19:27:41.512Z,77030.78
2023-03-21T19:30:15.298Z,77030.78
2023-03-21T19:32:44.189Z,77034.84
2023-03-21T19:35:11.814Z,77055.09
2023-03-21T19:37:39.040Z,77047.00
2023-03-21T19:40:07.202Z,77047.00
2023-03-21T19:42:36.313Z,77057.13
2023-03-21T19:45:05.447Z,77063.22
2023-03-21T19:47:32.866Z,77057.13
2023-03-21T19:50:42.730Z,77063.22
2023-03-21T19:52:47.231Z,77067.28
2023-03-21T19:55:14.981Z,77073.34
2023-03-21T19:57:42.209Z,77079.44
2023-03-21T20:00:11.468Z,77091.59
2023-03-21T20:02:39.619Z,77095.66
2023-03-21T20:05:07.832Z,77107.81
2023-03-21T20:07:35.531Z,77103.75
2023-03-21T20:10:02.649Z,77109.84
2023-03-21T20:12:30.682Z,77111.88
2023-03-21T20:15:10.334Z,77115.94
2023-03-21T20:17:43.223Z,77128.09
2023-03-21T20:20:14.028Z,77130.13
2023-03-21T20:23:05.623Z,77138.22
2023-03-21T20:25:30.147Z,77136.19
2023-03-21T20:28:14.573Z,77140.25
2023-03-21T20:30:57.285Z,77152.41
2023-03-21T20:33:25.269Z,77150.41
2023-03-21T20:38:51.500Z,77156.47
2023-03-21T20:41:18.613Z,77156.47
2023-03-21T20:46:37.044Z,77164.59
2023-03-21T20:49:08.704Z,77160.53
2023-03-21T20:54:23.618Z,77172.69
2023-03-21T20:56:50.911Z,77172.69
2023-03-21T20:59:26.455Z,77176.75
2023-03-21T21:01:57.266Z,77188.91
2023-03-21T21:04:44.195Z,77180.81
2023-03-21T21:07:17.282Z,77180.81
2023-03-21T21:09:45.465Z,77188.91
2023-03-21T21:12:14.490Z,77192.97
2023-03-21T21:14:42.628Z,77188.91
2023-03-21T21:19:56.944Z,77192.97
2023-03-21T21:22:23.811Z,77197.03
2023-03-21T21:24:52.083Z,77201.06
2023-03-21T21:27:19.959Z,77197.03
2023-03-21T21:29:50.008Z,77203.09
2023-03-21T21:32:18.806Z,77209.19
2023-03-21T21:34:46.383Z,77213.25
2023-03-21T21:37:13.284Z,77225.41
2023-03-21T21:39:42.067Z,77229.47
2023-03-21T21:42:09.048Z,77223.38
2023-03-21T21:44:37.347Z,77227.44
2023-03-21T21:47:08.595Z,77229.47
2023-03-21T21:49:36.039Z,77229.47
2023-03-21T21:52:04.078Z,77235.53
2023-03-21T21:54:34.340Z,77237.56
2023-03-21T21:57:01.303Z,77237.56
2023-03-21T21:59:29.339Z,77233.53
2023-03-21T22:01:58.590Z,77235.53
2023-03-21T22:04:27.631Z,77241.63
2023-03-21T22:06:55.499Z,77245.69
2023-03-21T22:09:23.152Z,77249.75
2023-03-21T22:11:50.589Z,77257.84
2023-03-21T22:14:18.216Z,77261.91
2023-03-21T22:16:46.874Z,77261.91
2023-03-21T22:19:14.363Z,77270.00
2023-03-21T22:21:41.612Z,77276.09
2023-03-21T22:24:08.853Z,77274.06
2023-03-21T22:26:36.311Z,77274.06
2023-03-21T22:29:03.805Z,77278.13
2023-03-21T22:31:30.867Z,77276.09
2023-03-21T22:33:58.383Z,77290.28
2023-03-21T22:36:25.499Z,77274.06
2023-03-21T22:38:52.651Z,77286.22
2023-03-21T22:41:19.554Z,77282.19
2023-03-21T22:43:46.839Z,77282.19
2023-03-21T22:46:13.923Z,77280.16
2023-03-21T22:48:41.591Z,77286.22
2023-03-21T22:51:09.143Z,77290.28
2023-03-21T22:53:36.726Z,77294.34
2023-03-21T22:56:03.656Z,77294.34
2023-03-21T22:58:31.076Z,77292.31
2023-03-21T23:01:02.438Z,77302.44
2023-03-21T23:03:29.645Z,77298.41
2023-03-21T23:06:01.522Z,77306.50
2023-03-21T23:08:29.842Z,77302.44
2023-03-21T23:10:56.713Z,77306.50
2023-03-21T23:13:26.442Z,77306.50
2023-03-21T23:15:53.677Z,77310.56
2023-03-21T23:18:21.369Z,77314.63
2023-03-21T23:20:53.628Z,77316.66
2023-03-21T23:23:21.473Z,77318.66
2023-03-21T23:25:48.590Z,77326.78
2023-03-21T23:28:15.791Z,77334.91
2023-03-21T23:30:43.067Z,77338.94
2023-03-21T23:33:10.616Z,77334.91
2023-03-21T23:35:38.501Z,77343.00
2023-03-21T23:38:06.338Z,77338.94
2023-03-21T23:40:33.493Z,77347.06
2023-03-21T23:43:00.755Z,77347.06
2023-03-21T23:45:28.193Z,77351.13
2023-03-21T23:47:55.690Z,77353.13
2023-03-21T23:50:23.198Z,77351.13
2023-03-21T23:52:50.966Z,77351.13
2023-03-21T23:55:17.946Z,77351.13
2023-03-21T23:57:45.172Z,77355.16
